Terminal Aerodrome Forecast
Issued by NWS Cleveland, OH

Home | Current Version | Previous Version | Text Only | Print | Product List | Glossary Off
Versions: 1 2 3 4 5 6 7 8 9 10 11 12 13 14 15 16 17

000
FTUS41 KCLE 221727
TAFTOL
TAF
KTOL 221727Z 2218/2318 29008KT P6SM VCTS SCT012CB BKN040
     FM222100 31010KT P6SM SCT010 OVC025
     FM230800 33003KT 3SM BR SKC
     FM231200 01006KT P6SM SKC=

USA.gov is the U.S. government's official web portal to all federal, state and local government web resources and services.